Time;durP1;ratioP1;P1;durP2;ratioP2;P2;SDS_P1;SDS_P2;PMS_P1;PMS_P2;Temp;Humidity;BMP_temperature;BMP_pressure;BME280_temperature;BME280_humidity;BME280_pressure;Samples;Min_cycle;Max_cycle;Signal;HPM_P1;HPM_P2
2022/01/12 00:01:19;;;;;;;79.93;33.95;;;3.30;99.90;;;;;;5083232;28;20104;-70
2022/01/12 00:03:45;;;;;;;98.78;42.10;;;3.30;99.90;;;;;;5071289;28;20040;-70
2022/01/12 00:06:12;;;;;;;81.07;35.35;;;3.30;99.90;;;;;;5092208;28;20043;-70
2022/01/12 00:08:38;;;;;;;90.18;39.72;;;3.30;99.90;;;;;;5067558;28;20032;-70
2022/01/12 00:11:05;;;;;;;114.20;43.90;;;3.30;99.90;;;;;;5071761;28;20047;-70
2022/01/12 00:13:32;;;;;;;109.82;42.50;;;3.40;99.90;;;;;;5086120;28;20130;-70
2022/01/12 00:15:58;;;;;;;102.60;42.70;;;3.30;99.90;;;;;;5087081;28;20070;-70
2022/01/12 00:18:24;;;;;;;116.75;41.65;;;3.30;99.90;;;;;;5085483;28;20135;-70
2022/01/12 00:20:50;;;;;;;119.15;44.42;;;3.70;99.90;;;;;;5075556;28;20036;-70
2022/01/12 00:23:17;;;;;;;90.22;37.25;;;3.30;99.90;;;;;;5068575;28;20032;-70
2022/01/12 00:26:02;;;;;;;127.20;45.33;;;3.40;99.90;;;;;;5071395;28;20685;-70
2022/01/12 00:34:04;;;;;;;129.40;44.13;;;3.40;99.90;;;;;;5076728;28;20176;-70
2022/01/12 00:36:30;;;;;;;140.38;45.00;;;3.40;99.90;;;;;;5086186;28;20035;-70
2022/01/12 00:38:57;;;;;;;115.90;44.50;;;3.40;99.90;;;;;;5075845;28;20043;-70
2022/01/12 00:41:23;;;;;;;167.90;52.08;;;3.40;99.90;;;;;;5079840;28;20051;-70
2022/01/12 00:43:56;;;;;;;174.63;53.92;;;4.20;99.90;;;;;;5083956;28;20035;-70
2022/01/12 00:46:22;;;;;;;145.43;48.00;;;3.40;99.90;;;;;;5075334;28;20036;-70
2022/01/12 00:48:48;;;;;;;137.18;47.63;;;3.40;99.90;;;;;;5090506;28;20050;-70
2022/01/12 00:51:14;;;;;;;165.57;50.22;;;3.40;99.90;;;;;;5067564;28;20040;-70
2022/01/12 00:53:40;;;;;;;158.60;51.70;;;3.40;99.90;;;;;;5089512;28;20061;-70
2022/01/12 00:56:06;;;;;;;115.18;40.20;;;3.40;99.90;;;;;;5085937;28;20445;-70
2022/01/12 00:58:33;;;;;;;144.40;46.00;;;3.40;99.90;;;;;;5090123;28;20071;-70
2022/01/12 01:00:59;;;;;;;123.22;43.78;;;4.10;99.90;;;;;;5101734;28;20036;-70
2022/01/12 01:03:24;;;;;;;163.90;50.75;;;3.40;99.90;;;;;;5073706;28;20043;-70
2022/01/12 01:05:50;;;;;;;124.15;39.67;;;3.40;99.90;;;;;;5074595;28;20040;-70
2022/01/12 01:08:17;;;;;;;128.15;39.08;;;3.40;99.90;;;;;;5087443;28;20507;-70
2022/01/12 01:10:46;;;;;;;133.43;45.05;;;4.10;99.90;;;;;;5087029;28;20043;-70
2022/01/12 01:13:15;;;;;;;145.07;43.03;;;3.40;99.90;;;;;;5091475;28;20059;-70
2022/01/12 01:26:27;;;;;;;204.98;51.55;;;3.50;99.90;;;;;;5086470;28;20400;-70
2022/01/12 01:28:52;;;;;;;236.50;55.55;;;3.80;99.90;;;;;;5067698;28;20039;-70
2022/01/12 01:31:20;;;;;;;241.93;58.90;;;3.70;99.90;;;;;;5062439;28;20047;-70
2022/01/12 01:33:46;;;;;;;254.27;64.20;;;3.40;99.90;;;;;;5076658;28;20053;-70
2022/01/12 01:36:13;;;;;;;205.40;53.00;;;3.50;99.90;;;;;;5079275;28;20040;-70
2022/01/12 01:38:39;;;;;;;244.02;58.97;;;3.50;99.90;;;;;;5073723;28;20047;-70
2022/01/12 01:41:05;;;;;;;301.05;68.00;;;3.40;99.90;;;;;;5073288;28;20047;-70
2022/01/12 01:54:15;;;;;;;187.25;53.45;;;4.20;99.90;;;;;;5069280;28;20066;-70
2022/01/12 01:56:41;;;;;;;273.25;64.13;;;4.00;99.90;;;;;;5073406;28;20104;-70
2022/01/12 01:59:07;;;;;;;256.15;58.40;;;3.50;99.90;;;;;;5076910;28;20039;-70
2022/01/12 02:01:33;;;;;;;251.02;62.03;;;3.90;99.90;;;;;;5090856;28;20070;-70
2022/01/12 02:04:02;;;;;;;249.07;58.88;;;3.90;99.90;;;;;;5066112;28;20068;-70
2022/01/12 02:06:29;;;;;;;250.13;60.75;;;3.60;99.90;;;;;;5080878;28;20116;-70
2022/01/12 02:08:55;;;;;;;285.15;64.78;;;3.60;99.90;;;;;;5088685;28;20122;-70
2022/01/12 02:11:26;;;;;;;327.08;69.07;;;3.80;99.90;;;;;;5085294;28;20120;-70
2022/01/12 02:13:52;;;;;;;366.10;74.22;;;3.60;99.90;;;;;;5064154;28;20035;-70
2022/01/12 02:16:22;;;;;;;253.27;60.63;;;3.60;99.90;;;;;;5091196;28;20110;-70
2022/01/12 02:19:17;;;;;;;204.02;52.60;;;3.70;99.90;;;;;;5072090;28;20046;-70
2022/01/12 02:40:27;;;;;;;;;;;3.60;99.90;;;;;;5079379;28;20475;-70
2022/01/12 02:53:43;;;;;;;294.38;62.83;;;3.70;99.90;;;;;;5064539;28;20100;-70
2022/01/12 02:56:20;;;;;;;450.00;78.45;;;4.60;99.90;;;;;;5084426;28;20075;-70
2022/01/12 02:58:47;;;;;;;377.02;71.53;;;3.60;99.90;;;;;;5077018;28;20427;-70
2022/01/12 03:04:02;;;;;;;272.05;59.72;;;4.00;99.90;;;;;;5077648;28;20557;-70
2022/01/12 03:06:32;;;;;;;326.35;68.90;;;3.50;99.90;;;;;;5070696;28;20088;-70
2022/01/12 03:09:00;;;;;;;248.70;60.08;;;3.80;99.90;;;;;;5061476;28;20042;-70
2022/01/12 03:11:27;;;;;;;362.35;70.72;;;4.00;99.90;;;;;;5095202;28;20054;-70
2022/01/12 03:13:53;;;;;;;344.80;69.45;;;3.80;99.90;;;;;;5070542;28;20570;-70
2022/01/12 03:16:23;;;;;;;292.10;59.72;;;3.70;99.90;;;;;;5082694;28;20040;-70
2022/01/12 03:18:51;;;;;;;265.40;64.45;;;3.70;99.90;;;;;;5088235;28;20047;-70
2022/01/12 03:21:19;;;;;;;252.45;57.70;;;3.80;99.90;;;;;;5085526;28;20051;-70
2022/01/12 03:23:45;;;;;;;241.38;58.35;;;3.70;99.90;;;;;;5073965;28;20035;-70
2022/01/12 03:26:11;;;;;;;196.30;49.60;;;3.70;99.90;;;;;;5091483;28;20046;-70
2022/01/12 03:28:39;;;;;;;206.68;53.33;;;3.60;99.90;;;;;;5074500;28;20039;-70
2022/01/12 03:31:14;;;;;;;182.13;50.47;;;3.80;99.90;;;;;;5060258;28;20115;-70
2022/01/12 03:39:00;;;;;;;169.63;51.45;;;3.70;99.90;;;;;;5082028;28;20090;-70
2022/01/12 03:41:28;;;;;;;185.25;51.97;;;3.80;99.90;;;;;;5091106;28;20044;-70
2022/01/12 03:43:56;;;;;;;178.07;51.55;;;3.80;99.90;;;;;;5088213;28;20487;-70
2022/01/12 03:46:26;;;;;;;226.55;57.05;;;4.30;99.90;;;;;;5072820;28;20089;-70
2022/01/12 03:48:52;;;;;;;205.13;55.78;;;3.70;99.90;;;;;;5093396;28;20100;-70
2022/01/12 03:51:18;;;;;;;222.85;56.72;;;3.70;99.90;;;;;;5088111;28;20036;-70
2022/01/12 03:53:44;;;;;;;217.35;53.97;;;3.70;99.90;;;;;;5067308;28;20067;-70
2022/01/12 03:56:10;;;;;;;223.43;54.33;;;3.60;99.90;;;;;;5087168;28;20511;-70
2022/01/12 03:58:37;;;;;;;194.13;51.70;;;3.60;99.90;;;;;;5084623;28;20036;-70
2022/01/12 04:01:03;;;;;;;188.80;48.45;;;3.50;99.90;;;;;;5085859;28;20063;-70
2022/01/12 04:03:30;;;;;;;172.30;49.40;;;3.40;99.90;;;;;;5074945;28;20039;-70
2022/01/12 04:08:40;;;;;;;193.90;48.75;;;3.40;99.90;;;;;;5085519;28;20050;-70
2022/01/12 04:11:05;;;;;;;170.20;47.83;;;3.30;99.90;;;;;;5084626;28;20123;-70
2022/01/12 04:13:32;;;;;;;180.63;48.70;;;3.20;99.90;;;;;;5086180;28;20394;-70
2022/01/12 04:16:06;;;;;;;228.25;53.70;;;3.00;99.90;;;;;;5070830;28;20048;-70
2022/01/12 04:18:32;;;;;;;236.70;52.53;;;3.10;99.90;;;;;;5082687;28;20050;-70
2022/01/12 04:21:01;;;;;;;216.35;51.05;;;3.10;99.90;;;;;;5072212;28;20066;-70
2022/01/12 04:23:28;;;;;;;243.25;52.25;;;3.10;99.90;;;;;;5084634;28;20145;-70
2022/01/12 04:25:59;;;;;;;395.63;68.97;;;3.20;99.90;;;;;;5089176;28;20032;-70
2022/01/12 04:28:27;;;;;;;518.75;78.15;;;3.60;99.90;;;;;;5082347;28;20043;-70
2022/01/12 04:30:55;;;;;;;563.05;84.95;;;2.90;99.90;;;;;;5086063;28;20098;-70
2022/01/12 04:33:22;;;;;;;484.70;74.43;;;3.20;99.90;;;;;;5084971;28;20036;-70
2022/01/12 04:35:52;;;;;;;616.85;85.53;;;3.20;99.90;;;;;;5092402;28;20044;-70
2022/01/12 04:38:22;;;;;;;687.78;93.28;;;2.90;99.90;;;;;;5080128;28;20061;-70
2022/01/12 04:40:48;;;;;;;672.60;85.82;;;3.10;99.90;;;;;;5086439;28;20062;-70
2022/01/12 04:43:15;;;;;;;538.38;72.53;;;2.90;99.90;;;;;;5084921;28;20065;-70
2022/01/12 04:50:45;;;;;;;571.72;75.20;;;3.30;99.90;;;;;;5065984;28;20429;-70
2022/01/12 04:53:13;;;;;;;484.85;67.00;;;3.10;99.90;;;;;;5090579;28;20059;-70
2022/01/12 04:55:39;;;;;;;486.85;64.22;;;3.50;99.90;;;;;;5068109;28;20040;-70
2022/01/12 04:58:06;;;;;;;399.70;58.22;;;3.10;99.90;;;;;;5086765;28;20126;-70
2022/01/12 05:00:34;;;;;;;577.58;77.82;;;3.30;99.90;;;;;;5087516;28;20032;-70
2022/01/12 05:13:45;;;;;;;238.48;38.70;;;2.90;99.90;;;;;;5081751;28;20043;-70
2022/01/12 05:16:12;;;;;;;316.25;46.92;;;2.80;99.90;;;;;;5079106;28;20036;-70
2022/01/12 05:18:39;;;;;;;425.58;60.88;;;2.80;99.90;;;;;;5057284;28;20354;-70
2022/01/12 05:21:07;;;;;;;484.30;69.30;;;2.80;99.90;;;;;;5081267;28;20048;-70
2022/01/12 05:23:33;;;;;;;353.95;55.65;;;2.80;99.90;;;;;;5081707;28;20552;-70
2022/01/12 05:25:59;;;;;;;452.55;64.65;;;2.80;99.90;;;;;;5084832;28;20080;-70
2022/01/12 05:28:26;;;;;;;373.65;54.17;;;2.80;99.90;;;;;;5071800;28;20040;-70
2022/01/12 05:30:53;;;;;;;512.00;71.75;;;2.90;99.90;;;;;;5077869;28;20032;-70
2022/01/12 05:33:20;;;;;;;456.65;68.38;;;2.70;99.90;;;;;;5082740;28;20042;-70
2022/01/12 05:35:46;;;;;;;369.52;61.70;;;2.80;99.90;;;;;;5083081;28;20080;-70
2022/01/12 05:38:13;;;;;;;375.05;57.80;;;2.80;99.90;;;;;;5085841;28;20515;-70
2022/01/12 05:40:42;;;;;;;299.15;50.85;;;2.70;99.90;;;;;;5085369;28;20035;-70
2022/01/12 05:43:08;;;;;;;339.38;53.67;;;2.70;99.90;;;;;;5083095;28;20705;-70
2022/01/12 05:45:37;;;;;;;320.92;53.00;;;2.80;99.90;;;;;;5067490;28;20043;-70
2022/01/12 05:50:37;;;;;;;285.05;51.22;;;2.80;99.90;;;;;;5083020;28;20403;-70
2022/01/12 05:53:03;;;;;;;407.30;67.95;;;2.80;99.90;;;;;;5087574;28;20039;-70
2022/01/12 05:55:29;;;;;;;279.73;51.55;;;2.80;99.90;;;;;;5086900;28;20043;-70
2022/01/12 05:57:55;;;;;;;342.20;59.42;;;2.80;99.90;;;;;;5082616;28;20047;-70
2022/01/12 06:00:24;;;;;;;251.68;53.28;;;2.70;99.90;;;;;;5083435;28;20032;-69
2022/01/12 06:02:51;;;;;;;289.08;54.85;;;2.80;99.90;;;;;;5087409;28;20499;-69
2022/01/12 06:05:19;;;;;;;245.55;50.38;;;3.20;99.90;;;;;;5090500;28;20446;-69
2022/01/12 06:07:52;;;;;;;200.35;44.92;;;2.80;99.90;;;;;;5078265;28;20391;-70
2022/01/12 06:10:21;;;;;;;193.02;47.85;;;2.90;99.90;;;;;;5081462;28;20131;-70
2022/01/12 06:12:47;;;;;;;227.93;49.42;;;2.90;99.90;;;;;;5092830;28;20047;-70
2022/01/12 06:15:12;;;;;;;223.77;50.03;;;2.90;99.90;;;;;;5072507;28;20044;-70
2022/01/12 06:17:38;;;;;;;197.65;47.55;;;2.80;99.90;;;;;;5079661;28;20046;-70
2022/01/12 06:20:05;;;;;;;169.07;44.47;;;2.80;99.90;;;;;;5086587;28;20082;-70
2022/01/12 06:22:32;;;;;;;169.77;39.88;;;2.90;99.90;;;;;;5082662;28;20036;-70
2022/01/12 06:24:59;;;;;;;208.32;48.05;;;2.90;99.90;;;;;;5085368;28;20061;-70
2022/01/12 06:27:29;;;;;;;164.50;42.60;;;2.80;99.90;;;;;;5086564;28;20035;-70
2022/01/12 06:30:05;;;;;;;195.50;42.97;;;2.80;99.90;;;;;;5084366;28;20446;-70
2022/01/12 06:32:31;;;;;;;247.35;50.28;;;2.80;99.90;;;;;;5064180;28;20076;-70
2022/01/12 06:34:57;;;;;;;207.82;45.17;;;3.00;99.90;;;;;;5084926;28;20047;-69
2022/01/12 06:37:23;;;;;;;241.32;43.72;;;2.70;99.90;;;;;;5082498;28;20061;-70
2022/01/12 06:39:49;;;;;;;350.35;57.45;;;2.80;99.90;;;;;;5082568;28;20394;-69
2022/01/12 06:42:15;;;;;;;272.05;46.70;;;3.10;99.90;;;;;;5072060;28;20113;-70
2022/01/12 06:44:41;;;;;;;314.88;51.65;;;2.50;99.90;;;;;;5087692;28;22019;-69
2022/01/12 06:47:07;;;;;;;351.45;52.72;;;2.50;99.90;;;;;;5088088;28;20089;-70
2022/01/12 06:49:32;;;;;;;370.00;51.85;;;2.50;99.90;;;;;;5083136;28;20043;-70
2022/01/12 06:52:00;;;;;;;325.80;48.97;;;2.50;99.90;;;;;;5073584;28;20082;-70
2022/01/12 06:54:26;;;;;;;301.52;49.17;;;2.50;99.90;;;;;;5082802;28;20078;-70
2022/01/12 06:56:52;;;;;;;334.00;53.42;;;2.50;99.90;;;;;;5086990;28;20384;-70
2022/01/12 06:59:18;;;;;;;219.88;41.15;;;2.40;99.90;;;;;;5071792;28;20050;-70
2022/01/12 07:01:44;;;;;;;246.20;44.83;;;2.50;99.90;;;;;;5073102;28;20043;-70
2022/01/12 07:04:10;;;;;;;331.02;53.65;;;2.40;99.90;;;;;;5086121;28;20067;-70
2022/01/12 07:06:36;;;;;;;288.40;52.85;;;2.40;99.90;;;;;;5082817;28;20032;-69
2022/01/12 07:09:04;;;;;;;223.20;42.80;;;2.50;99.90;;;;;;5086129;28;20462;-69
2022/01/12 07:11:30;;;;;;;219.43;42.47;;;3.10;99.90;;;;;;5090572;28;20473;-69
2022/01/12 07:13:56;;;;;;;197.38;40.13;;;2.40;99.90;;;;;;5073014;28;20043;-69
2022/01/12 07:16:22;;;;;;;216.40;43.47;;;3.00;99.90;;;;;;5068954;28;20067;-69
2022/01/12 07:18:47;;;;;;;230.38;45.80;;;2.30;99.90;;;;;;5070324;28;20043;-69
2022/01/12 07:21:13;;;;;;;191.63;40.45;;;2.70;99.90;;;;;;5081610;28;20060;-69
2022/01/12 07:23:39;;;;;;;148.15;34.50;;;2.30;99.90;;;;;;5085619;28;20046;-69
2022/01/12 07:26:05;;;;;;;162.35;40.70;;;2.30;99.90;;;;;;5083946;28;20130;-69
2022/01/12 07:28:31;;;;;;;187.25;41.15;;;2.30;99.90;;;;;;5078525;28;20056;-69
2022/01/12 07:30:57;;;;;;;215.57;43.45;;;2.60;99.90;;;;;;5062489;28;20529;-69
2022/01/12 07:33:25;;;;;;;172.00;39.90;;;2.40;99.90;;;;;;5072404;28;20023;-69
2022/01/12 07:35:51;;;;;;;188.80;40.88;;;2.40;99.90;;;;;;5089710;28;20458;-70
2022/01/12 07:38:17;;;;;;;173.30;37.47;;;2.20;99.90;;;;;;5084049;28;20257;-70
2022/01/12 07:40:43;;;;;;;314.33;55.75;;;2.40;99.90;;;;;;5067284;28;20667;-70
2022/01/12 07:43:09;;;;;;;275.42;47.97;;;3.10;99.90;;;;;;5072507;28;20051;-70
2022/01/12 07:45:36;;;;;;;311.38;48.47;;;2.40;99.90;;;;;;5073699;28;20034;-70
2022/01/12 07:48:02;;;;;;;313.10;46.88;;;2.40;99.90;;;;;;5083347;28;20028;-70
2022/01/12 07:50:29;;;;;;;329.35;50.13;;;2.40;99.90;;;;;;5087506;28;20487;-70
2022/01/12 07:52:54;;;;;;;345.23;49.85;;;2.40;99.90;;;;;;5059769;28;20138;-70
2022/01/12 07:55:21;;;;;;;375.60;52.42;;;2.90;99.90;;;;;;5069859;28;20485;-69
2022/01/12 07:57:48;;;;;;;422.88;54.03;;;2.40;99.90;;;;;;5083652;28;20124;-69
2022/01/12 08:00:15;;;;;;;335.52;50.97;;;2.30;99.90;;;;;;5087049;28;20042;-70
2022/01/12 08:02:40;;;;;;;375.17;51.20;;;2.40;99.90;;;;;;5089285;28;20334;-70
2022/01/12 08:05:06;;;;;;;244.27;39.00;;;2.30;99.90;;;;;;5088929;28;20062;-70
2022/01/12 08:07:36;;;;;;;297.00;47.63;;;2.30;99.90;;;;;;5080801;28;20394;-70
2022/01/12 08:10:05;;;;;;;202.68;40.03;;;2.30;99.90;;;;;;5091726;28;20036;-70
2022/01/12 08:12:31;;;;;;;204.52;39.90;;;2.40;99.90;;;;;;5057356;28;20039;-70
2022/01/12 08:14:57;;;;;;;217.77;42.10;;;2.30;99.90;;;;;;5088060;28;20073;-70
2022/01/12 08:17:22;;;;;;;208.77;39.92;;;2.40;99.90;;;;;;5073442;28;20477;-70
2022/01/12 08:19:48;;;;;;;255.40;46.63;;;2.60;99.90;;;;;;5087592;28;20051;-70
2022/01/12 08:22:14;;;;;;;259.10;47.92;;;2.90;99.90;;;;;;5085733;28;20495;-70
2022/01/12 08:24:40;;;;;;;271.05;43.72;;;2.30;99.90;;;;;;5071946;28;20036;-70
2022/01/12 08:27:06;;;;;;;220.65;40.65;;;2.60;99.90;;;;;;5065611;28;20038;-70
2022/01/12 08:29:32;;;;;;;221.32;37.67;;;2.60;99.90;;;;;;5090306;28;20088;-70
2022/01/12 08:31:58;;;;;;;202.55;34.25;;;2.70;99.90;;;;;;5082778;28;20039;-70
2022/01/12 08:34:24;;;;;;;176.15;33.95;;;2.70;99.90;;;;;;5085755;28;20039;-70
2022/01/12 08:36:50;;;;;;;216.65;35.58;;;2.70;99.90;;;;;;5067846;28;20048;-70
2022/01/12 08:39:16;;;;;;;362.65;50.13;;;2.80;99.90;;;;;;5074724;28;20124;-70
2022/01/12 08:41:42;;;;;;;305.13;46.30;;;2.80;99.90;;;;;;5062414;28;20036;-70
2022/01/12 08:44:09;;;;;;;211.18;36.42;;;3.10;99.90;;;;;;5088263;28;20044;-70
2022/01/12 08:46:36;;;;;;;180.68;31.92;;;2.80;99.90;;;;;;5069749;28;20061;-70
2022/01/12 08:49:02;;;;;;;242.60;37.45;;;2.90;99.90;;;;;;5068705;28;20040;-70
2022/01/12 08:51:28;;;;;;;197.38;34.20;;;3.00;99.90;;;;;;5084389;28;20081;-69
2022/01/12 08:53:54;;;;;;;209.85;37.38;;;3.10;99.90;;;;;;5081405;28;20040;-69
2022/01/12 08:56:20;;;;;;;178.25;31.73;;;3.40;99.90;;;;;;5064531;28;20052;-69
2022/01/12 08:58:47;;;;;;;161.73;28.92;;;3.40;99.90;;;;;;5062687;28;21469;-69
2022/01/12 09:01:13;;;;;;;255.70;36.78;;;3.50;99.90;;;;;;5082680;28;20074;-70
2022/01/12 09:03:40;;;;;;;159.90;29.73;;;3.50;99.90;;;;;;5083433;28;20137;-70
2022/01/12 09:06:06;;;;;;;167.38;32.10;;;;;;;;;;5073743;28;20126;-70
2022/01/12 09:08:34;;;;;;;154.98;31.00;;;;;;;;;;5058610;28;20028;-70
2022/01/12 09:11:00;;;;;;;109.40;26.73;;;3.30;99.90;;;;;;5087952;28;20036;-70
2022/01/12 09:13:26;;;;;;;150.80;30.95;;;3.40;99.90;;;;;;5066585;28;20079;-70
2022/01/12 09:15:52;;;;;;;132.68;28.80;;;3.40;99.90;;;;;;5089766;28;20530;-70
2022/01/12 09:18:18;;;;;;;152.85;29.48;;;3.50;99.90;;;;;;5071087;28;20068;-70
2022/01/12 09:20:45;;;;;;;106.95;22.63;;;3.50;99.90;;;;;;5090772;28;20082;-70
2022/01/12 09:23:11;;;;;;;117.32;23.98;;;3.50;99.90;;;;;;5092153;28;20051;-70
2022/01/12 09:25:39;;;;;;;113.35;22.55;;;3.90;99.90;;;;;;5090130;28;20395;-70
2022/01/12 09:28:06;;;;;;;92.97;21.70;;;3.60;99.90;;;;;;5074784;28;20044;-70
2022/01/12 09:30:32;;;;;;;95.57;22.20;;;3.70;99.90;;;;;;5074339;28;20038;-70
2022/01/12 09:32:59;;;;;;;96.47;21.90;;;3.70;99.90;;;;;;5090305;28;20125;-70
2022/01/12 09:35:25;;;;;;;103.32;23.52;;;3.80;99.90;;;;;;5104837;28;20063;-70
2022/01/12 09:37:50;;;;;;;83.25;21.27;;;3.90;99.90;;;;;;5072235;28;20070;-70
2022/01/12 09:40:16;;;;;;;70.90;19.10;;;4.40;99.90;;;;;;5085045;28;20047;-70
2022/01/12 09:42:44;;;;;;;92.13;22.77;;;4.10;99.90;;;;;;5086513;28;20078;-70
2022/01/12 09:45:14;;;;;;;67.40;19.02;;;4.10;99.90;;;;;;5091656;28;20617;-70
2022/01/12 09:47:42;;;;;;;63.20;18.37;;;4.20;99.90;;;;;;5089037;28;20064;-70
2022/01/12 09:50:10;;;;;;;85.20;20.90;;;4.20;99.90;;;;;;5087378;28;20509;-70
2022/01/12 09:52:35;;;;;;;84.70;19.90;;;4.20;99.90;;;;;;5089576;28;20380;-70
2022/01/12 09:55:01;;;;;;;116.80;25.00;;;4.30;99.90;;;;;;5061156;28;20064;-70
2022/01/12 09:57:27;;;;;;;95.55;22.02;;;4.40;99.90;;;;;;5059027;28;20405;-69
2022/01/12 09:59:52;;;;;;;105.70;22.73;;;4.40;99.90;;;;;;5065346;28;20037;-69
2022/01/12 10:02:21;;;;;;;92.47;19.10;;;4.40;99.90;;;;;;5032381;28;20041;-69
2022/01/12 10:04:47;;;;;;;124.50;23.23;;;4.50;99.90;;;;;;5064406;28;20044;-69
2022/01/12 10:07:14;;;;;;;83.85;20.80;;;4.50;99.90;;;;;;5056508;28;20044;-69
2022/01/12 10:09:45;;;;;;;149.20;27.23;;;4.50;99.90;;;;;;5052611;28;20048;-69
2022/01/12 10:12:13;;;;;;;114.97;22.13;;;4.60;99.90;;;;;;5043114;28;20036;-69
2022/01/12 10:14:44;;;;;;;106.38;21.15;;;4.60;99.90;;;;;;5059598;28;20044;-70
2022/01/12 10:17:11;;;;;;;50.65;14.43;;;4.60;99.90;;;;;;5059586;28;20056;-70
2022/01/12 10:19:38;;;;;;;145.25;23.67;;;5.00;99.90;;;;;;5066697;28;20511;-69
2022/01/12 10:22:06;;;;;;;102.93;18.30;;;4.60;99.90;;;;;;5064018;28;20033;-69
2022/01/12 10:24:37;;;;;;;97.70;18.77;;;4.70;99.90;;;;;;5067778;28;20047;-69
2022/01/12 10:27:12;;;;;;;71.47;14.02;;;4.70;99.90;;;;;;5063485;28;20097;-69
2022/01/12 10:29:38;;;;;;;82.15;15.13;;;4.60;99.90;;;;;;5064081;28;20082;-69
2022/01/12 10:32:05;;;;;;;55.45;13.25;;;4.70;99.90;;;;;;5066216;28;20075;-69
2022/01/12 10:34:43;;;;;;;72.38;15.00;;;4.70;99.90;;;;;;5062047;28;20512;-69
2022/01/12 10:37:14;;;;;;;68.88;14.70;;;4.70;99.90;;;;;;5059521;28;20115;-69
2022/01/12 10:39:41;;;;;;;;;;;4.80;99.90;;;;;;5058217;28;20037;-69
2022/01/12 10:42:10;;;;;;;67.22;14.25;;;4.90;99.90;;;;;;5056199;28;19920;-69
2022/01/12 10:44:47;;;;;;;84.70;17.63;;;5.30;99.90;;;;;;5062465;28;20033;-69
2022/01/12 10:47:18;;;;;;;45.28;12.18;;;5.00;99.90;;;;;;5067014;28;20040;-70
2022/01/12 10:50:02;;;;;;;80.82;16.05;;;5.00;99.90;;;;;;5065067;28;20048;-69
2022/01/12 10:52:30;;;;;;;95.75;16.92;;;5.00;99.90;;;;;;5059719;28;20044;-69
2022/01/12 10:55:04;;;;;;;73.15;15.73;;;5.00;99.90;;;;;;5071084;28;20563;-69
2022/01/12 10:57:32;;;;;;;76.38;13.77;;;5.10;99.90;;;;;;5087509;28;20044;-69
2022/01/12 11:00:18;;;;;;;84.00;14.15;;;5.10;99.90;;;;;;5082728;28;20228;-69
2022/01/12 11:02:56;;;;;;;70.53;11.75;;;5.10;99.90;;;;;;5069631;28;20119;-69
2022/01/12 11:05:25;;;;;;;76.65;13.38;;;5.10;99.90;;;;;;5090248;28;20044;-69
2022/01/12 11:07:52;;;;;;;81.78;14.35;;;5.10;99.90;;;;;;5085023;28;20060;-69
2022/01/12 11:10:19;;;;;;;70.75;13.45;;;5.10;99.90;;;;;;5069655;28;20039;-69
2022/01/12 11:12:46;;;;;;;59.40;11.20;;;5.10;99.90;;;;;;5083490;28;20062;-69
2022/01/12 11:15:15;;;;;;;84.18;13.35;;;5.10;99.90;;;;;;5065335;28;20407;-69
2022/01/12 11:17:43;;;;;;;92.10;13.98;;;5.10;99.90;;;;;;5079540;28;20039;-69
2022/01/12 11:20:18;;;;;;;78.97;13.07;;;5.10;99.90;;;;;;5084528;28;20049;-69
2022/01/12 11:22:43;;;;;;;66.13;12.43;;;5.30;99.90;;;;;;5081527;28;20035;-69
2022/01/12 11:25:25;;;;;;;68.75;15.35;;;5.10;99.90;;;;;;5080056;28;20038;-69
2022/01/12 11:28:09;;;;;;;41.97;11.65;;;5.10;99.90;;;;;;5087574;28;20515;-69
2022/01/12 11:30:37;;;;;;;62.33;13.10;;;5.10;99.90;;;;;;5086744;28;20055;-69
2022/01/12 11:33:05;;;;;;;51.92;12.32;;;5.20;99.90;;;;;;5088832;28;20652;-69
2022/01/12 11:35:34;;;;;;;51.65;14.82;;;5.20;99.90;;;;;;5086601;28;20064;-70
2022/01/12 11:38:01;;;;;;;45.67;11.73;;;5.30;99.90;;;;;;5087184;28;20051;-70
2022/01/12 11:40:42;;;;;;;36.35;11.65;;;5.30;99.90;;;;;;5093075;28;20454;-69
2022/01/12 11:43:25;;;;;;;48.83;13.85;;;5.40;99.90;;;;;;5077214;28;20491;-69
2022/01/12 11:46:07;;;;;;;49.10;12.15;;;5.40;99.90;;;;;;5069619;28;20126;-69
2022/01/12 11:48:44;;;;;;;54.40;12.75;;;5.40;99.90;;;;;;5088605;28;20040;-69
2022/01/12 11:51:10;;;;;;;36.03;11.75;;;5.40;99.90;;;;;;5082424;28;20035;-70
2022/01/12 11:53:52;;;;;;;37.13;10.80;;;5.40;99.90;;;;;;5089915;28;20066;-69
2022/01/12 11:56:24;;;;;;;45.80;11.75;;;5.50;99.90;;;;;;5088132;28;20181;-69
2022/01/12 11:58:55;;;;;;;50.47;10.57;;;5.50;99.90;;;;;;5091992;28;20138;-70
2022/01/12 12:01:22;;;;;;;33.28;11.50;;;5.40;99.90;;;;;;5082843;28;20044;-70
2022/01/12 12:03:59;;;;;;;27.45;10.05;;;5.50;99.90;;;;;;5089009;28;20039;-69
2022/01/12 12:06:26;;;;;;;27.80;9.85;;;5.50;99.90;;;;;;5083699;28;20631;-69
2022/01/12 12:08:58;;;;;;;31.10;9.82;;;5.50;99.90;;;;;;5087315;28;20510;-69
2022/01/12 12:11:29;;;;;;;38.30;10.85;;;5.50;99.90;;;;;;5091269;28;20043;-69
2022/01/12 12:14:06;;;;;;;31.35;10.52;;;5.50;99.90;;;;;;5090017;28;20043;-69
2022/01/12 12:16:34;;;;;;;37.47;11.27;;;5.50;99.90;;;;;;5090713;28;20075;-69
2022/01/12 12:19:04;;;;;;;38.13;11.50;;;5.50;99.90;;;;;;5068954;28;20167;-69
2022/01/12 12:21:31;;;;;;;38.20;11.20;;;5.50;99.90;;;;;;5093584;28;20039;-69
2022/01/12 12:24:11;;;;;;;33.83;11.30;;;5.60;99.90;;;;;;5093281;28;20534;-69
2022/01/12 12:26:47;;;;;;;31.83;11.40;;;5.60;99.90;;;;;;5078462;28;20044;-69
2022/01/12 12:29:17;;;;;;;33.33;10.82;;;5.60;99.90;;;;;;5089205;28;20039;-69
2022/01/12 12:31:47;;;;;;;38.92;12.20;;;5.60;99.90;;;;;;5089766;28;20428;-69
2022/01/12 12:34:14;;;;;;;41.92;11.55;;;5.60;99.90;;;;;;5061389;28;20036;-69
2022/01/12 12:36:40;;;;;;;33.90;11.43;;;6.30;99.90;;;;;;5080456;28;20474;-69
2022/01/12 12:39:14;;;;;;;32.90;10.55;;;5.90;99.90;;;;;;5069578;28;20040;-69
2022/01/12 12:41:42;;;;;;;48.72;13.18;;;5.60;99.90;;;;;;5068172;28;20040;-69
2022/01/12 12:44:21;;;;;;;34.47;11.43;;;5.60;99.90;;;;;;5081164;28;20055;-69
2022/01/12 12:46:49;;;;;;;40.28;11.70;;;5.70;99.90;;;;;;5083456;28;20040;-69
2022/01/12 12:49:14;;;;;;;40.28;12.75;;;5.70;99.90;;;;;;5093618;28;20411;-69
2022/01/12 12:51:40;;;;;;;37.55;14.48;;;5.70;99.90;;;;;;5084110;28;20035;-69
2022/01/12 12:54:06;;;;;;;39.95;13.48;;;5.80;99.90;;;;;;5089036;28;20051;-69
2022/01/12 12:56:40;;;;;;;43.28;15.35;;;5.70;99.90;;;;;;5067598;28;20062;-69
2022/01/12 12:59:07;;;;;;;38.40;14.10;;;6.20;99.90;;;;;;5056412;28;20062;-69
2022/01/12 13:01:33;;;;;;;50.13;14.55;;;5.80;99.90;;;;;;5085660;28;20036;-69
2022/01/12 13:04:00;;;;;;;44.60;14.25;;;5.80;99.90;;;;;;5085853;28;20048;-69
2022/01/12 13:06:34;;;;;;;42.65;14.57;;;6.30;99.90;;;;;;5090071;28;20081;-69
2022/01/12 13:09:03;;;;;;;42.28;13.02;;;5.80;99.90;;;;;;5083060;28;20051;-71
2022/01/12 13:11:37;;;;;;;45.22;20.95;;;5.80;99.90;;;;;;5086888;28;20494;-70
2022/01/12 13:14:11;;;;;;;49.85;15.23;;;5.90;99.90;;;;;;5088740;28;20039;-69
2022/01/12 13:17:05;;;;;;;39.65;14.00;;;5.90;99.90;;;;;;5084351;28;20126;-69
2022/01/12 13:22:36;;;;;;;41.92;13.75;;;5.90;99.90;;;;;;5085732;28;20051;-69
2022/01/12 13:25:11;;;;;;;38.92;13.65;;;6.50;99.90;;;;;;5087596;28;20043;-70
2022/01/12 13:27:38;;;;;;;35.80;14.00;;;5.80;99.90;;;;;;5074845;28;20097;-70
2022/01/12 13:30:10;;;;;;;42.55;15.48;;;5.80;99.90;;;;;;5081740;28;20347;-70
2022/01/12 13:32:37;;;;;;;50.58;16.05;;;5.80;99.90;;;;;;5078803;28;20415;-70
2022/01/12 13:35:10;;;;;;;47.50;15.75;;;6.20;99.90;;;;;;5091942;28;20100;-70
2022/01/12 13:37:38;;;;;;;44.65;15.35;;;5.80;99.90;;;;;;5063266;28;20040;-70
2022/01/12 13:40:11;;;;;;;41.60;14.48;;;5.80;99.90;;;;;;5072127;28;20131;-70
2022/01/12 13:43:06;;;;;;;50.72;16.02;;;5.80;99.90;;;;;;5087425;28;20051;-70
2022/01/12 13:45:45;;;;;;;46.55;15.13;;;5.70;99.90;;;;;;5068109;28;20073;-70
2022/01/12 13:48:15;;;;;;;37.95;13.30;;;5.80;99.90;;;;;;5086196;28;20061;-70
2022/01/12 13:50:52;;;;;;;38.87;12.53;;;5.70;99.90;;;;;;5079651;28;20063;-70
2022/01/12 13:53:18;;;;;;;34.70;13.10;;;5.60;99.90;;;;;;5065592;28;20055;-70
2022/01/12 13:55:54;;;;;;;36.78;11.63;;;5.60;99.90;;;;;;5100050;28;20061;-70
2022/01/12 13:58:24;;;;;;;26.77;11.77;;;5.50;99.90;;;;;;5062628;28;20719;-69
2022/01/12 14:00:58;;;;;;;31.88;13.57;;;5.40;99.90;;;;;;5073826;28;20522;-69
2022/01/12 14:03:25;;;;;;;44.08;16.35;;;5.40;99.90;;;;;;5066478;28;20127;-69
2022/01/12 14:05:58;;;;;;;28.98;11.88;;;5.40;99.90;;;;;;5082422;28;20557;-70